sensor_id;sensor_type;location;lat;lon;timestamp;P1;durP1;ratioP1;P2;durP2;ratioP2
26516;SDS011;14190;51.342;6.338;2023-06-22T00:01:18;6.47;;;4.00;;
26516;SDS011;14190;51.342;6.338;2023-06-22T00:03:45;9.20;;;5.08;;
26516;SDS011;14190;51.342;6.338;2023-06-22T00:06:13;8.08;;;4.97;;
26516;SDS011;14190;51.342;6.338;2023-06-22T00:08:40;9.75;;;4.95;;
26516;SDS011;14190;51.342;6.338;2023-06-22T00:11:08;9.10;;;4.22;;
26516;SDS011;14190;51.342;6.338;2023-06-22T00:13:35;9.35;;;4.55;;
26516;SDS011;14190;51.342;6.338;2023-06-22T00:16:02;7.67;;;5.00;;
26516;SDS011;14190;51.342;6.338;2023-06-22T00:18:30;7.87;;;3.95;;
26516;SDS011;14190;51.342;6.338;2023-06-22T00:20:58;6.22;;;4.15;;
26516;SDS011;14190;51.342;6.338;2023-06-22T00:23:26;7.90;;;4.45;;
26516;SDS011;14190;51.342;6.338;2023-06-22T00:25:53;5.85;;;4.33;;
26516;SDS011;14190;51.342;6.338;2023-06-22T00:28:21;7.58;;;4.47;;
26516;SDS011;14190;51.342;6.338;2023-06-22T00:30:48;8.38;;;5.15;;
26516;SDS011;14190;51.342;6.338;2023-06-22T00:33:16;10.55;;;6.00;;
26516;SDS011;14190;51.342;6.338;2023-06-22T00:35:43;8.90;;;5.05;;
26516;SDS011;14190;51.342;6.338;2023-06-22T00:38:11;9.28;;;5.50;;
26516;SDS011;14190;51.342;6.338;2023-06-22T00:40:40;10.98;;;5.20;;
26516;SDS011;14190;51.342;6.338;2023-06-22T00:43:07;7.12;;;4.87;;
26516;SDS011;14190;51.342;6.338;2023-06-22T00:45:35;7.97;;;5.58;;
26516;SDS011;14190;51.342;6.338;2023-06-22T00:48:02;12.47;;;5.37;;
26516;SDS011;14190;51.342;6.338;2023-06-22T00:50:32;10.75;;;5.40;;
26516;SDS011;14190;51.342;6.338;2023-06-22T00:53:06;9.28;;;5.40;;
26516;SDS011;14190;51.342;6.338;2023-06-22T00:55:37;10.15;;;5.87;;
26516;SDS011;14190;51.342;6.338;2023-06-22T00:58:06;9.17;;;5.40;;
26516;SDS011;14190;51.342;6.338;2023-06-22T01:00:35;8.85;;;6.42;;
26516;SDS011;14190;51.342;6.338;2023-06-22T01:03:03;11.60;;;5.87;;
26516;SDS011;14190;51.342;6.338;2023-06-22T01:05:30;9.25;;;5.40;;
26516;SDS011;14190;51.342;6.338;2023-06-22T01:08:13;11.75;;;4.85;;
26516;SDS011;14190;51.342;6.338;2023-06-22T01:10:41;9.20;;;5.45;;
26516;SDS011;14190;51.342;6.338;2023-06-22T01:13:11;10.40;;;6.05;;
26516;SDS011;14190;51.342;6.338;2023-06-22T01:15:40;9.58;;;6.10;;
26516;SDS011;14190;51.342;6.338;2023-06-22T01:18:06;8.10;;;6.08;;
26516;SDS011;14190;51.342;6.338;2023-06-22T01:20:35;10.43;;;5.92;;
26516;SDS011;14190;51.342;6.338;2023-06-22T01:28:42;9.90;;;6.15;;
26516;SDS011;14190;51.342;6.338;2023-06-22T01:31:10;10.60;;;5.65;;
26516;SDS011;14190;51.342;6.338;2023-06-22T01:33:39;9.88;;;5.00;;
26516;SDS011;14190;51.342;6.338;2023-06-22T01:36:08;11.73;;;6.40;;
26516;SDS011;14190;51.342;6.338;2023-06-22T01:38:35;15.05;;;6.67;;
26516;SDS011;14190;51.342;6.338;2023-06-22T01:41:05;13.25;;;6.42;;
26516;SDS011;14190;51.342;6.338;2023-06-22T01:43:32;12.35;;;6.05;;
26516;SDS011;14190;51.342;6.338;2023-06-22T01:46:01;8.65;;;5.30;;
26516;SDS011;14190;51.342;6.338;2023-06-22T01:48:29;10.50;;;6.35;;
26516;SDS011;14190;51.342;6.338;2023-06-22T01:50:57;13.90;;;5.95;;
26516;SDS011;14190;51.342;6.338;2023-06-22T01:53:25;11.03;;;7.00;;
26516;SDS011;14190;51.342;6.338;2023-06-22T01:55:52;12.63;;;6.92;;
26516;SDS011;14190;51.342;6.338;2023-06-22T01:58:20;12.33;;;6.40;;
26516;SDS011;14190;51.342;6.338;2023-06-22T02:00:53;12.63;;;6.33;;
26516;SDS011;14190;51.342;6.338;2023-06-22T02:03:26;11.60;;;5.42;;
26516;SDS011;14190;51.342;6.338;2023-06-22T02:05:52;13.03;;;6.80;;
26516;SDS011;14190;51.342;6.338;2023-06-22T02:08:22;11.43;;;5.60;;
26516;SDS011;14190;51.342;6.338;2023-06-22T02:10:50;13.03;;;6.22;;
26516;SDS011;14190;51.342;6.338;2023-06-22T02:13:20;9.50;;;6.20;;
26516;SDS011;14190;51.342;6.338;2023-06-22T02:15:47;14.63;;;6.78;;
26516;SDS011;14190;51.342;6.338;2023-06-22T02:18:15;11.43;;;6.30;;
26516;SDS011;14190;51.342;6.338;2023-06-22T02:20:43;11.95;;;6.60;;
26516;SDS011;14190;51.342;6.338;2023-06-22T02:23:10;9.05;;;5.53;;
26516;SDS011;14190;51.342;6.338;2023-06-22T02:25:37;14.98;;;7.62;;
26516;SDS011;14190;51.342;6.338;2023-06-22T02:28:06;12.43;;;6.75;;
26516;SDS011;14190;51.342;6.338;2023-06-22T02:30:33;12.50;;;6.20;;
26516;SDS011;14190;51.342;6.338;2023-06-22T02:33:00;11.88;;;6.45;;
26516;SDS011;14190;51.342;6.338;2023-06-22T02:35:28;10.90;;;6.65;;
26516;SDS011;14190;51.342;6.338;2023-06-22T02:38:00;11.35;;;6.15;;
26516;SDS011;14190;51.342;6.338;2023-06-22T02:40:28;9.60;;;6.20;;
26516;SDS011;14190;51.342;6.338;2023-06-22T02:42:56;9.70;;;6.12;;
26516;SDS011;14190;51.342;6.338;2023-06-22T02:45:28;12.15;;;6.62;;
26516;SDS011;14190;51.342;6.338;2023-06-22T02:47:56;10.60;;;5.72;;
26516;SDS011;14190;51.342;6.338;2023-06-22T02:50:23;11.08;;;6.40;;
26516;SDS011;14190;51.342;6.338;2023-06-22T02:52:51;11.43;;;6.75;;
26516;SDS011;14190;51.342;6.338;2023-06-22T02:55:19;12.43;;;6.67;;
26516;SDS011;14190;51.342;6.338;2023-06-22T02:57:48;13.95;;;8.43;;
26516;SDS011;14190;51.342;6.338;2023-06-22T03:00:18;13.55;;;7.97;;
26516;SDS011;14190;51.342;6.338;2023-06-22T03:02:47;12.98;;;8.58;;
26516;SDS011;14190;51.342;6.338;2023-06-22T03:05:15;15.95;;;8.28;;
26516;SDS011;14190;51.342;6.338;2023-06-22T03:07:44;14.33;;;8.28;;
26516;SDS011;14190;51.342;6.338;2023-06-22T03:10:12;11.22;;;8.05;;
26516;SDS011;14190;51.342;6.338;2023-06-22T03:12:41;16.65;;;8.53;;
26516;SDS011;14190;51.342;6.338;2023-06-22T03:15:09;12.58;;;7.75;;
26516;SDS011;14190;51.342;6.338;2023-06-22T03:17:38;13.70;;;7.75;;
26516;SDS011;14190;51.342;6.338;2023-06-22T03:20:06;16.32;;;7.55;;
26516;SDS011;14190;51.342;6.338;2023-06-22T03:22:38;14.10;;;8.45;;
26516;SDS011;14190;51.342;6.338;2023-06-22T03:25:06;15.45;;;8.35;;
26516;SDS011;14190;51.342;6.338;2023-06-22T03:27:38;14.47;;;7.70;;
26516;SDS011;14190;51.342;6.338;2023-06-22T03:30:07;13.58;;;7.20;;
26516;SDS011;14190;51.342;6.338;2023-06-22T03:32:35;13.45;;;8.98;;
26516;SDS011;14190;51.342;6.338;2023-06-22T03:35:04;13.60;;;8.47;;
26516;SDS011;14190;51.342;6.338;2023-06-22T03:37:33;15.13;;;10.15;;
26516;SDS011;14190;51.342;6.338;2023-06-22T03:40:01;10.40;;;7.78;;
26516;SDS011;14190;51.342;6.338;2023-06-22T03:42:30;15.50;;;8.98;;
26516;SDS011;14190;51.342;6.338;2023-06-22T03:44:57;12.55;;;7.40;;
26516;SDS011;14190;51.342;6.338;2023-06-22T03:47:25;12.82;;;7.92;;
26516;SDS011;14190;51.342;6.338;2023-06-22T03:49:52;17.73;;;8.53;;
26516;SDS011;14190;51.342;6.338;2023-06-22T03:52:21;12.15;;;6.87;;
26516;SDS011;14190;51.342;6.338;2023-06-22T03:54:49;12.05;;;8.30;;
26516;SDS011;14190;51.342;6.338;2023-06-22T03:57:16;11.43;;;8.35;;
26516;SDS011;14190;51.342;6.338;2023-06-22T03:59:43;15.13;;;7.45;;
26516;SDS011;14190;51.342;6.338;2023-06-22T04:02:11;13.45;;;7.92;;
26516;SDS011;14190;51.342;6.338;2023-06-22T04:04:38;15.98;;;8.25;;
26516;SDS011;14190;51.342;6.338;2023-06-22T04:07:06;13.08;;;7.70;;
26516;SDS011;14190;51.342;6.338;2023-06-22T04:09:34;16.97;;;7.65;;
26516;SDS011;14190;51.342;6.338;2023-06-22T04:12:01;15.10;;;8.40;;
26516;SDS011;14190;51.342;6.338;2023-06-22T04:14:29;17.80;;;7.55;;
26516;SDS011;14190;51.342;6.338;2023-06-22T04:16:57;13.85;;;7.67;;
26516;SDS011;14190;51.342;6.338;2023-06-22T04:19:24;12.18;;;8.25;;
26516;SDS011;14190;51.342;6.338;2023-06-22T04:21:51;13.95;;;8.38;;
26516;SDS011;14190;51.342;6.338;2023-06-22T04:24:19;14.43;;;7.42;;
26516;SDS011;14190;51.342;6.338;2023-06-22T04:26:46;12.70;;;8.03;;
26516;SDS011;14190;51.342;6.338;2023-06-22T04:29:14;12.80;;;7.50;;
26516;SDS011;14190;51.342;6.338;2023-06-22T04:31:41;13.32;;;8.78;;
26516;SDS011;14190;51.342;6.338;2023-06-22T04:34:09;12.33;;;8.28;;
26516;SDS011;14190;51.342;6.338;2023-06-22T04:36:37;13.70;;;7.45;;
26516;SDS011;14190;51.342;6.338;2023-06-22T04:39:09;14.53;;;8.18;;
26516;SDS011;14190;51.342;6.338;2023-06-22T04:41:37;15.18;;;8.35;;
26516;SDS011;14190;51.342;6.338;2023-06-22T04:44:14;12.55;;;8.63;;
26516;SDS011;14190;51.342;6.338;2023-06-22T04:46:43;14.73;;;8.23;;
26516;SDS011;14190;51.342;6.338;2023-06-22T04:49:11;17.12;;;8.93;;
26516;SDS011;14190;51.342;6.338;2023-06-22T04:51:43;10.80;;;7.47;;
26516;SDS011;14190;51.342;6.338;2023-06-22T04:54:08;16.23;;;8.33;;
26516;SDS011;14190;51.342;6.338;2023-06-22T04:56:35;17.25;;;9.15;;
26516;SDS011;14190;51.342;6.338;2023-06-22T04:59:03;12.23;;;7.87;;
26516;SDS011;14190;51.342;6.338;2023-06-22T05:01:30;14.10;;;8.15;;
26516;SDS011;14190;51.342;6.338;2023-06-22T05:03:58;12.40;;;7.87;;
26516;SDS011;14190;51.342;6.338;2023-06-22T05:06:27;10.10;;;7.67;;
26516;SDS011;14190;51.342;6.338;2023-06-22T05:08:55;14.53;;;8.60;;
26516;SDS011;14190;51.342;6.338;2023-06-22T05:11:29;17.00;;;8.93;;
26516;SDS011;14190;51.342;6.338;2023-06-22T05:13:56;13.80;;;8.38;;
26516;SDS011;14190;51.342;6.338;2023-06-22T05:16:23;18.50;;;9.95;;
26516;SDS011;14190;51.342;6.338;2023-06-22T05:18:52;17.27;;;8.75;;
26516;SDS011;14190;51.342;6.338;2023-06-22T05:21:23;17.30;;;9.40;;
26516;SDS011;14190;51.342;6.338;2023-06-22T05:23:51;13.68;;;9.25;;
26516;SDS011;14190;51.342;6.338;2023-06-22T05:26:19;19.70;;;9.48;;
26516;SDS011;14190;51.342;6.338;2023-06-22T05:28:46;13.93;;;9.65;;
26516;SDS011;14190;51.342;6.338;2023-06-22T05:31:14;17.92;;;9.15;;
26516;SDS011;14190;51.342;6.338;2023-06-22T05:33:42;24.05;;;9.23;;
26516;SDS011;14190;51.342;6.338;2023-06-22T05:36:10;18.60;;;9.88;;
26516;SDS011;14190;51.342;6.338;2023-06-22T05:38:37;12.88;;;8.53;;
26516;SDS011;14190;51.342;6.338;2023-06-22T05:41:05;16.82;;;8.93;;
26516;SDS011;14190;51.342;6.338;2023-06-22T05:43:32;19.95;;;9.90;;
26516;SDS011;14190;51.342;6.338;2023-06-22T05:46:00;19.77;;;9.53;;
26516;SDS011;14190;51.342;6.338;2023-06-22T05:48:28;16.20;;;9.05;;
26516;SDS011;14190;51.342;6.338;2023-06-22T05:50:55;19.17;;;9.45;;
26516;SDS011;14190;51.342;6.338;2023-06-22T05:53:23;13.08;;;8.75;;
26516;SDS011;14190;51.342;6.338;2023-06-22T05:55:50;18.15;;;8.53;;
26516;SDS011;14190;51.342;6.338;2023-06-22T05:58:18;17.20;;;8.90;;
26516;SDS011;14190;51.342;6.338;2023-06-22T06:00:45;15.30;;;9.33;;
26516;SDS011;14190;51.342;6.338;2023-06-22T06:03:12;19.82;;;9.70;;
26516;SDS011;14190;51.342;6.338;2023-06-22T06:05:42;16.20;;;9.20;;
26516;SDS011;14190;51.342;6.338;2023-06-22T06:08:09;15.95;;;9.13;;
26516;SDS011;14190;51.342;6.338;2023-06-22T06:10:37;18.12;;;10.75;;
26516;SDS011;14190;51.342;6.338;2023-06-22T06:13:05;17.45;;;10.25;;
26516;SDS011;14190;51.342;6.338;2023-06-22T06:15:33;16.75;;;9.70;;
26516;SDS011;14190;51.342;6.338;2023-06-22T06:18:01;16.50;;;9.80;;
26516;SDS011;14190;51.342;6.338;2023-06-22T06:20:30;17.77;;;10.43;;
26516;SDS011;14190;51.342;6.338;2023-06-22T06:22:58;16.80;;;10.15;;
26516;SDS011;14190;51.342;6.338;2023-06-22T06:25:25;20.45;;;9.48;;
26516;SDS011;14190;51.342;6.338;2023-06-22T06:27:53;19.82;;;10.63;;
26516;SDS011;14190;51.342;6.338;2023-06-22T06:30:21;16.55;;;10.25;;
26516;SDS011;14190;51.342;6.338;2023-06-22T06:32:49;18.55;;;10.15;;
26516;SDS011;14190;51.342;6.338;2023-06-22T06:35:16;21.45;;;10.03;;
26516;SDS011;14190;51.342;6.338;2023-06-22T06:37:44;16.12;;;10.40;;
26516;SDS011;14190;51.342;6.338;2023-06-22T06:40:12;21.35;;;10.80;;
26516;SDS011;14190;51.342;6.338;2023-06-22T06:42:41;19.32;;;11.48;;
26516;SDS011;14190;51.342;6.338;2023-06-22T06:45:11;17.42;;;9.75;;
26516;SDS011;14190;51.342;6.338;2023-06-22T06:47:39;20.15;;;12.10;;
26516;SDS011;14190;51.342;6.338;2023-06-22T06:50:07;15.72;;;9.98;;
26516;SDS011;14190;51.342;6.338;2023-06-22T06:52:34;20.00;;;10.65;;
26516;SDS011;14190;51.342;6.338;2023-06-22T06:55:02;18.35;;;9.50;;
26516;SDS011;14190;51.342;6.338;2023-06-22T06:57:34;18.52;;;11.45;;
26516;SDS011;14190;51.342;6.338;2023-06-22T07:00:04;20.03;;;9.80;;
26516;SDS011;14190;51.342;6.338;2023-06-22T07:02:34;18.05;;;10.65;;
26516;SDS011;14190;51.342;6.338;2023-06-22T07:05:01;17.12;;;10.08;;
26516;SDS011;14190;51.342;6.338;2023-06-22T07:07:31;15.53;;;9.78;;
26516;SDS011;14190;51.342;6.338;2023-06-22T07:09:58;16.25;;;10.88;;
26516;SDS011;14190;51.342;6.338;2023-06-22T07:12:26;19.35;;;10.10;;
26516;SDS011;14190;51.342;6.338;2023-06-22T07:14:53;21.48;;;10.40;;
26516;SDS011;14190;51.342;6.338;2023-06-22T07:17:20;16.62;;;10.68;;
26516;SDS011;14190;51.342;6.338;2023-06-22T07:19:48;17.30;;;9.63;;
26516;SDS011;14190;51.342;6.338;2023-06-22T07:22:15;25.72;;;11.48;;
26516;SDS011;14190;51.342;6.338;2023-06-22T07:24:42;19.55;;;9.68;;
26516;SDS011;14190;51.342;6.338;2023-06-22T07:27:10;16.23;;;10.35;;
26516;SDS011;14190;51.342;6.338;2023-06-22T07:29:38;18.27;;;9.95;;
26516;SDS011;14190;51.342;6.338;2023-06-22T07:32:07;18.48;;;9.80;;
26516;SDS011;14190;51.342;6.338;2023-06-22T07:34:35;16.32;;;9.35;;
26516;SDS011;14190;51.342;6.338;2023-06-22T07:37:02;17.30;;;10.30;;
26516;SDS011;14190;51.342;6.338;2023-06-22T07:39:31;17.82;;;9.13;;
26516;SDS011;14190;51.342;6.338;2023-06-22T07:41:58;22.73;;;10.80;;
26516;SDS011;14190;51.342;6.338;2023-06-22T07:44:25;20.00;;;10.93;;
26516;SDS011;14190;51.342;6.338;2023-06-22T07:46:53;18.05;;;10.72;;
26516;SDS011;14190;51.342;6.338;2023-06-22T07:49:20;19.73;;;10.85;;
26516;SDS011;14190;51.342;6.338;2023-06-22T07:51:48;18.17;;;9.93;;
26516;SDS011;14190;51.342;6.338;2023-06-22T07:54:15;17.62;;;9.58;;
26516;SDS011;14190;51.342;6.338;2023-06-22T07:56:45;23.05;;;9.80;;
26516;SDS011;14190;51.342;6.338;2023-06-22T07:59:13;16.17;;;9.55;;
26516;SDS011;14190;51.342;6.338;2023-06-22T08:01:40;14.07;;;8.50;;
26516;SDS011;14190;51.342;6.338;2023-06-22T08:04:08;20.77;;;9.15;;
26516;SDS011;14190;51.342;6.338;2023-06-22T08:06:35;19.25;;;9.78;;
26516;SDS011;14190;51.342;6.338;2023-06-22T08:09:02;15.35;;;9.08;;
26516;SDS011;14190;51.342;6.338;2023-06-22T08:11:30;17.95;;;10.25;;
26516;SDS011;14190;51.342;6.338;2023-06-22T08:13:57;18.12;;;10.55;;
26516;SDS011;14190;51.342;6.338;2023-06-22T08:16:25;15.50;;;9.78;;
26516;SDS011;14190;51.342;6.338;2023-06-22T08:18:52;16.60;;;9.80;;
26516;SDS011;14190;51.342;6.338;2023-06-22T08:21:19;17.48;;;9.85;;
26516;SDS011;14190;51.342;6.338;2023-06-22T08:23:47;18.55;;;10.88;;
26516;SDS011;14190;51.342;6.338;2023-06-22T08:26:15;17.40;;;10.78;;
26516;SDS011;14190;51.342;6.338;2023-06-22T08:28:42;14.90;;;9.40;;
26516;SDS011;14190;51.342;6.338;2023-06-22T08:31:09;13.30;;;8.40;;
26516;SDS011;14190;51.342;6.338;2023-06-22T08:33:38;18.82;;;10.40;;
26516;SDS011;14190;51.342;6.338;2023-06-22T08:36:06;16.75;;;9.65;;
26516;SDS011;14190;51.342;6.338;2023-06-22T08:38:34;16.05;;;8.93;;
26516;SDS011;14190;51.342;6.338;2023-06-22T08:41:02;17.77;;;10.23;;
26516;SDS011;14190;51.342;6.338;2023-06-22T08:43:29;19.40;;;9.73;;
26516;SDS011;14190;51.342;6.338;2023-06-22T08:45:56;14.38;;;9.80;;
26516;SDS011;14190;51.342;6.338;2023-06-22T08:48:24;15.55;;;9.23;;
26516;SDS011;14190;51.342;6.338;2023-06-22T08:50:51;15.98;;;9.28;;
26516;SDS011;14190;51.342;6.338;2023-06-22T08:53:18;19.48;;;9.25;;
26516;SDS011;14190;51.342;6.338;2023-06-22T08:55:46;19.73;;;9.18;;
26516;SDS011;14190;51.342;6.338;2023-06-22T08:58:13;15.30;;;8.95;;
26516;SDS011;14190;51.342;6.338;2023-06-22T09:00:40;17.42;;;9.60;;
26516;SDS011;14190;51.342;6.338;2023-06-22T09:03:08;13.68;;;8.73;;
26516;SDS011;14190;51.342;6.338;2023-06-22T09:05:36;16.75;;;9.25;;
26516;SDS011;14190;51.342;6.338;2023-06-22T09:08:04;17.90;;;9.20;;
26516;SDS011;14190;51.342;6.338;2023-06-22T09:10:32;17.48;;;9.90;;
26516;SDS011;14190;51.342;6.338;2023-06-22T09:12:59;15.55;;;9.30;;
26516;SDS011;14190;51.342;6.338;2023-06-22T09:15:26;14.05;;;9.70;;
26516;SDS011;14190;51.342;6.338;2023-06-22T09:17:54;15.13;;;8.93;;
26516;SDS011;14190;51.342;6.338;2023-06-22T09:20:21;17.80;;;9.90;;
26516;SDS011;14190;51.342;6.338;2023-06-22T09:22:49;18.87;;;10.72;;
26516;SDS011;14190;51.342;6.338;2023-06-22T09:25:16;15.88;;;9.65;;
26516;SDS011;14190;51.342;6.338;2023-06-22T09:27:45;16.40;;;10.38;;
26516;SDS011;14190;51.342;6.338;2023-06-22T09:30:13;21.02;;;10.43;;
26516;SDS011;14190;51.342;6.338;2023-06-22T09:32:40;18.82;;;10.43;;
26516;SDS011;14190;51.342;6.338;2023-06-22T09:35:08;19.45;;;9.85;;
26516;SDS011;14190;51.342;6.338;2023-06-22T09:37:36;20.27;;;10.75;;
26516;SDS011;14190;51.342;6.338;2023-06-22T09:40:04;17.42;;;10.38;;
26516;SDS011;14190;51.342;6.338;2023-06-22T09:42:39;17.40;;;9.73;;
26516;SDS011;14190;51.342;6.338;2023-06-22T09:45:07;15.72;;;10.08;;
26516;SDS011;14190;51.342;6.338;2023-06-22T09:47:34;17.98;;;10.25;;
26516;SDS011;14190;51.342;6.338;2023-06-22T09:50:01;19.42;;;10.28;;
26516;SDS011;14190;51.342;6.338;2023-06-22T09:52:29;19.48;;;10.95;;
26516;SDS011;14190;51.342;6.338;2023-06-22T09:54:56;17.27;;;10.20;;
26516;SDS011;14190;51.342;6.338;2023-06-22T09:57:24;19.62;;;10.45;;
26516;SDS011;14190;51.342;6.338;2023-06-22T09:59:51;20.65;;;11.25;;
26516;SDS011;14190;51.342;6.338;2023-06-22T10:02:18;15.30;;;9.95;;
26516;SDS011;14190;51.342;6.338;2023-06-22T10:04:46;20.75;;;10.85;;
26516;SDS011;14190;51.342;6.338;2023-06-22T10:07:13;16.48;;;9.80;;
26516;SDS011;14190;51.342;6.338;2023-06-22T10:09:41;16.85;;;9.45;;
26516;SDS011;14190;51.342;6.338;2023-06-22T10:12:09;16.17;;;10.10;;
26516;SDS011;14190;51.342;6.338;2023-06-22T10:14:37;16.97;;;9.95;;
26516;SDS011;14190;51.342;6.338;2023-06-22T10:17:04;19.35;;;10.30;;
26516;SDS011;14190;51.342;6.338;2023-06-22T10:19:33;15.23;;;10.88;;
26516;SDS011;14190;51.342;6.338;2023-06-22T10:22:03;17.50;;;10.48;;
26516;SDS011;14190;51.342;6.338;2023-06-22T10:24:30;18.73;;;10.63;;
26516;SDS011;14190;51.342;6.338;2023-06-22T10:26:58;16.15;;;9.45;;
26516;SDS011;14190;51.342;6.338;2023-06-22T10:29:25;17.62;;;10.08;;
26516;SDS011;14190;51.342;6.338;2023-06-22T10:31:53;19.27;;;10.40;;
26516;SDS011;14190;51.342;6.338;2023-06-22T10:34:20;16.95;;;9.85;;
26516;SDS011;14190;51.342;6.338;2023-06-22T10:36:47;15.48;;;10.15;;
26516;SDS011;14190;51.342;6.338;2023-06-22T10:39:15;20.12;;;12.13;;
26516;SDS011;14190;51.342;6.338;2023-06-22T10:41:42;18.75;;;10.32;;
26516;SDS011;14190;51.342;6.338;2023-06-22T10:44:10;17.65;;;10.85;;
26516;SDS011;14190;51.342;6.338;2023-06-22T10:46:38;18.77;;;10.18;;
26516;SDS011;14190;51.342;6.338;2023-06-22T10:49:05;18.85;;;10.38;;
26516;SDS011;14190;51.342;6.338;2023-06-22T10:51:33;18.65;;;10.58;;
26516;SDS011;14190;51.342;6.338;2023-06-22T10:54:00;19.73;;;10.23;;
26516;SDS011;14190;51.342;6.338;2023-06-22T10:56:27;15.98;;;9.88;;
26516;SDS011;14190;51.342;6.338;2023-06-22T10:58:55;17.70;;;10.70;;
26516;SDS011;14190;51.342;6.338;2023-06-22T11:01:22;17.00;;;10.32;;
26516;SDS011;14190;51.342;6.338;2023-06-22T11:03:50;16.85;;;10.13;;
26516;SDS011;14190;51.342;6.338;2023-06-22T11:06:17;15.93;;;10.48;;
26516;SDS011;14190;51.342;6.338;2023-06-22T11:08:44;20.68;;;11.45;;
26516;SDS011;14190;51.342;6.338;2023-06-22T11:11:12;17.60;;;11.97;;
26516;SDS011;14190;51.342;6.338;2023-06-22T11:13:39;24.02;;;11.10;;
26516;SDS011;14190;51.342;6.338;2023-06-22T11:16:06;15.60;;;10.30;;
26516;SDS011;14190;51.342;6.338;2023-06-22T11:18:34;20.10;;;11.60;;
26516;SDS011;14190;51.342;6.338;2023-06-22T11:21:01;18.60;;;10.80;;
26516;SDS011;14190;51.342;6.338;2023-06-22T11:23:29;17.77;;;11.57;;
26516;SDS011;14190;51.342;6.338;2023-06-22T11:25:56;18.00;;;11.30;;
26516;SDS011;14190;51.342;6.338;2023-06-22T11:28:23;25.48;;;12.70;;
26516;SDS011;14190;51.342;6.338;2023-06-22T11:30:51;15.95;;;11.10;;
26516;SDS011;14190;51.342;6.338;2023-06-22T11:33:18;23.95;;;13.32;;
26516;SDS011;14190;51.342;6.338;2023-06-22T11:35:46;22.48;;;13.03;;
26516;SDS011;14190;51.342;6.338;2023-06-22T11:38:13;24.90;;;12.50;;
26516;SDS011;14190;51.342;6.338;2023-06-22T11:40:40;22.87;;;13.25;;
26516;SDS011;14190;51.342;6.338;2023-06-22T11:43:08;25.05;;;14.00;;
26516;SDS011;14190;51.342;6.338;2023-06-22T11:45:35;23.05;;;14.23;;
26516;SDS011;14190;51.342;6.338;2023-06-22T11:48:03;22.80;;;14.28;;
26516;SDS011;14190;51.342;6.338;2023-06-22T11:50:30;27.40;;;14.68;;
26516;SDS011;14190;51.342;6.338;2023-06-22T11:52:59;23.32;;;12.45;;
26516;SDS011;14190;51.342;6.338;2023-06-22T11:55:26;26.95;;;15.13;;
26516;SDS011;14190;51.342;6.338;2023-06-22T11:57:54;23.47;;;15.05;;
26516;SDS011;14190;51.342;6.338;2023-06-22T12:00:22;25.90;;;15.00;;
26516;SDS011;14190;51.342;6.338;2023-06-22T12:02:51;27.45;;;15.70;;
26516;SDS011;14190;51.342;6.338;2023-06-22T12:05:21;25.00;;;14.28;;
26516;SDS011;14190;51.342;6.338;2023-06-22T12:07:48;27.30;;;15.68;;
26516;SDS011;14190;51.342;6.338;2023-06-22T12:10:16;23.90;;;14.53;;
26516;SDS011;14190;51.342;6.338;2023-06-22T12:12:44;25.23;;;14.15;;
26516;SDS011;14190;51.342;6.338;2023-06-22T12:15:11;22.77;;;15.20;;
26516;SDS011;14190;51.342;6.338;2023-06-22T12:17:38;26.07;;;15.00;;
26516;SDS011;14190;51.342;6.338;2023-06-22T12:20:06;23.30;;;14.38;;
26516;SDS011;14190;51.342;6.338;2023-06-22T12:22:34;26.15;;;14.15;;
26516;SDS011;14190;51.342;6.338;2023-06-22T12:25:03;23.75;;;13.90;;
26516;SDS011;14190;51.342;6.338;2023-06-22T12:27:31;25.97;;;13.98;;
26516;SDS011;14190;51.342;6.338;2023-06-22T12:29:58;27.98;;;14.23;;
26516;SDS011;14190;51.342;6.338;2023-06-22T12:32:25;22.87;;;14.70;;
26516;SDS011;14190;51.342;6.338;2023-06-22T12:34:53;26.12;;;14.60;;
26516;SDS011;14190;51.342;6.338;2023-06-22T12:37:20;25.43;;;15.15;;
26516;SDS011;14190;51.342;6.338;2023-06-22T12:39:48;25.15;;;14.90;;
26516;SDS011;14190;51.342;6.338;2023-06-22T12:42:16;25.68;;;15.78;;
26516;SDS011;14190;51.342;6.338;2023-06-22T12:44:43;30.97;;;16.48;;
26516;SDS011;14190;51.342;6.338;2023-06-22T12:47:11;27.50;;;14.80;;
26516;SDS011;14190;51.342;6.338;2023-06-22T12:49:39;25.65;;;14.23;;
26516;SDS011;14190;51.342;6.338;2023-06-22T12:52:09;27.30;;;15.85;;
26516;SDS011;14190;51.342;6.338;2023-06-22T12:54:37;30.12;;;16.93;;
26516;SDS011;14190;51.342;6.338;2023-06-22T12:57:05;23.25;;;15.32;;
26516;SDS011;14190;51.342;6.338;2023-06-22T12:59:32;27.55;;;16.25;;
26516;SDS011;14190;51.342;6.338;2023-06-22T13:02:00;26.60;;;16.62;;
26516;SDS011;14190;51.342;6.338;2023-06-22T13:04:27;27.85;;;15.48;;
26516;SDS011;14190;51.342;6.338;2023-06-22T13:06:54;25.35;;;14.70;;
26516;SDS011;14190;51.342;6.338;2023-06-22T13:09:22;27.93;;;16.12;;
26516;SDS011;14190;51.342;6.338;2023-06-22T13:11:49;28.98;;;15.45;;
26516;SDS011;14190;51.342;6.338;2023-06-22T13:14:18;28.52;;;16.20;;
26516;SDS011;14190;51.342;6.338;2023-06-22T13:16:46;27.27;;;16.67;;
26516;SDS011;14190;51.342;6.338;2023-06-22T13:19:13;22.62;;;14.50;;
26516;SDS011;14190;51.342;6.338;2023-06-22T13:21:40;30.65;;;16.52;;
26516;SDS011;14190;51.342;6.338;2023-06-22T13:24:08;29.12;;;15.95;;
26516;SDS011;14190;51.342;6.338;2023-06-22T13:26:35;26.10;;;15.43;;
26516;SDS011;14190;51.342;6.338;2023-06-22T13:29:03;25.77;;;15.55;;
26516;SDS011;14190;51.342;6.338;2023-06-22T13:31:30;31.20;;;16.30;;
26516;SDS011;14190;51.342;6.338;2023-06-22T13:33:57;27.75;;;16.25;;
26516;SDS011;14190;51.342;6.338;2023-06-22T13:36:25;27.98;;;15.75;;
26516;SDS011;14190;51.342;6.338;2023-06-22T13:38:52;26.57;;;14.95;;
26516;SDS011;14190;51.342;6.338;2023-06-22T13:41:19;26.73;;;15.72;;
26516;SDS011;14190;51.342;6.338;2023-06-22T13:43:47;28.32;;;15.30;;
26516;SDS011;14190;51.342;6.338;2023-06-22T13:46:14;26.45;;;16.02;;
26516;SDS011;14190;51.342;6.338;2023-06-22T13:48:41;28.57;;;16.55;;
26516;SDS011;14190;51.342;6.338;2023-06-22T13:51:09;28.35;;;17.32;;
26516;SDS011;14190;51.342;6.338;2023-06-22T13:53:36;24.60;;;15.72;;
26516;SDS011;14190;51.342;6.338;2023-06-22T13:56:03;24.07;;;15.43;;
26516;SDS011;14190;51.342;6.338;2023-06-22T13:58:31;30.50;;;16.40;;
26516;SDS011;14190;51.342;6.338;2023-06-22T14:00:58;34.48;;;17.23;;
26516;SDS011;14190;51.342;6.338;2023-06-22T14:03:26;29.30;;;16.75;;
26516;SDS011;14190;51.342;6.338;2023-06-22T14:05:53;26.50;;;15.75;;
26516;SDS011;14190;51.342;6.338;2023-06-22T14:08:24;29.30;;;15.75;;
26516;SDS011;14190;51.342;6.338;2023-06-22T14:10:51;27.07;;;14.93;;
26516;SDS011;14190;51.342;6.338;2023-06-22T14:13:20;24.67;;;15.53;;
26516;SDS011;14190;51.342;6.338;2023-06-22T14:15:47;26.93;;;15.53;;
26516;SDS011;14190;51.342;6.338;2023-06-22T14:18:15;24.47;;;14.63;;
26516;SDS011;14190;51.342;6.338;2023-06-22T14:20:42;24.85;;;15.00;;
26516;SDS011;14190;51.342;6.338;2023-06-22T14:23:09;29.15;;;16.73;;
26516;SDS011;14190;51.342;6.338;2023-06-22T14:25:37;26.23;;;14.63;;
26516;SDS011;14190;51.342;6.338;2023-06-22T14:28:04;26.27;;;15.65;;
26516;SDS011;14190;51.342;6.338;2023-06-22T14:30:31;32.33;;;16.20;;
26516;SDS011;14190;51.342;6.338;2023-06-22T14:32:59;26.52;;;15.72;;
26516;SDS011;14190;51.342;6.338;2023-06-22T14:35:26;23.60;;;15.10;;
26516;SDS011;14190;51.342;6.338;2023-06-22T14:37:53;25.68;;;14.70;;
26516;SDS011;14190;51.342;6.338;2023-06-22T14:40:21;32.10;;;17.15;;